sensor_id;sensor_type;location;lat;lon;timestamp;P1;durP1;ratioP1;P2;durP2;ratioP2
56122;SDS011;42426;46.104;19.656;2023-06-14T00:02:03;8.43;;;5.07;;
56122;SDS011;42426;46.104;19.656;2023-06-14T00:04:30;7.43;;;4.95;;
56122;SDS011;42426;46.104;19.656;2023-06-14T00:06:56;8.27;;;4.88;;
56122;SDS011;42426;46.104;19.656;2023-06-14T00:09:22;12.40;;;5.78;;
56122;SDS011;42426;46.104;19.656;2023-06-14T00:11:48;6.90;;;4.88;;
56122;SDS011;42426;46.104;19.656;2023-06-14T00:14:15;9.25;;;5.28;;
56122;SDS011;42426;46.104;19.656;2023-06-14T00:16:41;5.57;;;4.50;;
56122;SDS011;42426;46.104;19.656;2023-06-14T00:19:08;8.65;;;5.20;;
56122;SDS011;42426;46.104;19.656;2023-06-14T00:21:36;8.75;;;5.00;;
56122;SDS011;42426;46.104;19.656;2023-06-14T00:24:03;6.28;;;4.50;;
56122;SDS011;42426;46.104;19.656;2023-06-14T00:26:29;6.22;;;5.13;;
56122;SDS011;42426;46.104;19.656;2023-06-14T00:28:55;6.85;;;4.63;;
56122;SDS011;42426;46.104;19.656;2023-06-14T00:31:21;8.23;;;5.25;;
56122;SDS011;42426;46.104;19.656;2023-06-14T00:33:48;8.98;;;5.50;;
56122;SDS011;42426;46.104;19.656;2023-06-14T00:36:13;7.40;;;4.95;;
56122;SDS011;42426;46.104;19.656;2023-06-14T00:38:39;9.80;;;5.00;;
56122;SDS011;42426;46.104;19.656;2023-06-14T00:41:05;9.02;;;5.32;;
56122;SDS011;42426;46.104;19.656;2023-06-14T00:43:33;7.78;;;5.25;;
56122;SDS011;42426;46.104;19.656;2023-06-14T00:46:00;6.55;;;4.68;;
56122;SDS011;42426;46.104;19.656;2023-06-14T00:48:26;6.93;;;5.43;;
56122;SDS011;42426;46.104;19.656;2023-06-14T00:50:52;8.40;;;5.25;;
56122;SDS011;42426;46.104;19.656;2023-06-14T00:53:19;9.35;;;5.00;;
56122;SDS011;42426;46.104;19.656;2023-06-14T00:55:47;6.20;;;5.18;;
56122;SDS011;42426;46.104;19.656;2023-06-14T00:58:13;8.20;;;5.20;;
56122;SDS011;42426;46.104;19.656;2023-06-14T01:00:41;7.80;;;4.75;;
56122;SDS011;42426;46.104;19.656;2023-06-14T01:03:07;5.22;;;4.32;;
56122;SDS011;42426;46.104;19.656;2023-06-14T01:05:43;6.93;;;4.88;;
56122;SDS011;42426;46.104;19.656;2023-06-14T01:08:25;7.22;;;4.97;;
56122;SDS011;42426;46.104;19.656;2023-06-14T01:11:05;8.80;;;5.72;;
56122;SDS011;42426;46.104;19.656;2023-06-14T01:13:38;7.35;;;5.22;;
56122;SDS011;42426;46.104;19.656;2023-06-14T01:16:08;7.15;;;5.72;;
56122;SDS011;42426;46.104;19.656;2023-06-14T01:18:34;6.60;;;4.85;;
56122;SDS011;42426;46.104;19.656;2023-06-14T01:21:00;8.23;;;4.60;;
56122;SDS011;42426;46.104;19.656;2023-06-14T01:23:30;6.80;;;5.15;;
56122;SDS011;42426;46.104;19.656;2023-06-14T01:25:58;10.00;;;5.20;;
56122;SDS011;42426;46.104;19.656;2023-06-14T01:28:25;10.73;;;5.38;;
56122;SDS011;42426;46.104;19.656;2023-06-14T01:30:57;5.93;;;4.72;;
56122;SDS011;42426;46.104;19.656;2023-06-14T01:33:29;8.90;;;5.57;;
56122;SDS011;42426;46.104;19.656;2023-06-14T01:35:56;7.55;;;5.80;;
56122;SDS011;42426;46.104;19.656;2023-06-14T01:38:24;7.43;;;5.10;;
56122;SDS011;42426;46.104;19.656;2023-06-14T01:40:52;9.68;;;4.95;;
56122;SDS011;42426;46.104;19.656;2023-06-14T01:43:20;7.22;;;4.90;;
56122;SDS011;42426;46.104;19.656;2023-06-14T01:45:47;7.30;;;5.05;;
56122;SDS011;42426;46.104;19.656;2023-06-14T01:48:16;7.28;;;5.53;;
56122;SDS011;42426;46.104;19.656;2023-06-14T01:50:42;7.35;;;5.38;;
56122;SDS011;42426;46.104;19.656;2023-06-14T01:53:08;9.25;;;5.80;;
56122;SDS011;42426;46.104;19.656;2023-06-14T01:55:37;8.43;;;5.70;;
56122;SDS011;42426;46.104;19.656;2023-06-14T01:58:04;10.43;;;5.65;;
56122;SDS011;42426;46.104;19.656;2023-06-14T02:00:31;10.60;;;5.68;;
56122;SDS011;42426;46.104;19.656;2023-06-14T02:02:57;8.85;;;5.55;;
56122;SDS011;42426;46.104;19.656;2023-06-14T02:05:23;8.82;;;5.45;;
56122;SDS011;42426;46.104;19.656;2023-06-14T02:07:49;12.60;;;6.20;;
56122;SDS011;42426;46.104;19.656;2023-06-14T02:10:15;8.63;;;5.35;;
56122;SDS011;42426;46.104;19.656;2023-06-14T02:12:42;9.38;;;6.05;;
56122;SDS011;42426;46.104;19.656;2023-06-14T02:15:09;7.53;;;5.22;;
56122;SDS011;42426;46.104;19.656;2023-06-14T02:17:45;8.60;;;5.95;;
56122;SDS011;42426;46.104;19.656;2023-06-14T02:20:20;6.90;;;5.57;;
56122;SDS011;42426;46.104;19.656;2023-06-14T02:22:45;8.23;;;6.03;;
56122;SDS011;42426;46.104;19.656;2023-06-14T02:25:11;8.30;;;5.30;;
56122;SDS011;42426;46.104;19.656;2023-06-14T02:27:37;8.82;;;5.28;;
56122;SDS011;42426;46.104;19.656;2023-06-14T02:30:03;9.40;;;5.57;;
56122;SDS011;42426;46.104;19.656;2023-06-14T02:32:30;8.25;;;5.95;;
56122;SDS011;42426;46.104;19.656;2023-06-14T02:34:56;9.50;;;5.53;;
56122;SDS011;42426;46.104;19.656;2023-06-14T02:37:22;8.38;;;6.05;;
56122;SDS011;42426;46.104;19.656;2023-06-14T02:39:48;9.70;;;5.43;;
56122;SDS011;42426;46.104;19.656;2023-06-14T02:42:14;9.18;;;6.25;;
56122;SDS011;42426;46.104;19.656;2023-06-14T02:44:39;8.43;;;5.60;;
56122;SDS011;42426;46.104;19.656;2023-06-14T02:47:05;10.00;;;6.03;;
56122;SDS011;42426;46.104;19.656;2023-06-14T02:49:31;10.50;;;5.07;;
56122;SDS011;42426;46.104;19.656;2023-06-14T02:51:57;9.38;;;5.60;;
56122;SDS011;42426;46.104;19.656;2023-06-14T02:54:23;7.30;;;5.60;;
56122;SDS011;42426;46.104;19.656;2023-06-14T02:56:48;11.38;;;5.80;;
56122;SDS011;42426;46.104;19.656;2023-06-14T02:59:15;15.13;;;5.97;;
56122;SDS011;42426;46.104;19.656;2023-06-14T03:01:42;11.02;;;6.30;;
56122;SDS011;42426;46.104;19.656;2023-06-14T03:04:08;9.10;;;5.78;;
56122;SDS011;42426;46.104;19.656;2023-06-14T03:06:34;10.93;;;5.80;;
56122;SDS011;42426;46.104;19.656;2023-06-14T03:09:00;9.45;;;6.18;;
56122;SDS011;42426;46.104;19.656;2023-06-14T03:11:29;8.48;;;5.45;;
56122;SDS011;42426;46.104;19.656;2023-06-14T03:13:55;8.93;;;5.78;;
56122;SDS011;42426;46.104;19.656;2023-06-14T03:16:22;9.20;;;5.95;;
56122;SDS011;42426;46.104;19.656;2023-06-14T03:18:49;7.93;;;5.95;;
56122;SDS011;42426;46.104;19.656;2023-06-14T03:21:16;9.50;;;6.20;;
56122;SDS011;42426;46.104;19.656;2023-06-14T03:23:43;8.73;;;6.45;;
56122;SDS011;42426;46.104;19.656;2023-06-14T03:26:10;8.55;;;6.28;;
56122;SDS011;42426;46.104;19.656;2023-06-14T03:28:46;9.35;;;6.03;;
56122;SDS011;42426;46.104;19.656;2023-06-14T03:31:13;12.73;;;6.85;;
56122;SDS011;42426;46.104;19.656;2023-06-14T03:33:40;8.63;;;5.95;;
56122;SDS011;42426;46.104;19.656;2023-06-14T03:36:05;13.45;;;6.53;;
56122;SDS011;42426;46.104;19.656;2023-06-14T03:38:34;12.07;;;6.07;;
56122;SDS011;42426;46.104;19.656;2023-06-14T03:41:01;10.13;;;5.88;;
56122;SDS011;42426;46.104;19.656;2023-06-14T03:43:27;9.43;;;6.93;;
56122;SDS011;42426;46.104;19.656;2023-06-14T03:45:53;11.70;;;6.80;;
56122;SDS011;42426;46.104;19.656;2023-06-14T03:48:18;11.13;;;6.35;;
56122;SDS011;42426;46.104;19.656;2023-06-14T03:50:44;10.63;;;6.68;;
56122;SDS011;42426;46.104;19.656;2023-06-14T03:53:10;11.43;;;6.88;;
56122;SDS011;42426;46.104;19.656;2023-06-14T03:55:36;12.32;;;7.15;;
56122;SDS011;42426;46.104;19.656;2023-06-14T03:58:03;9.77;;;5.88;;
56122;SDS011;42426;46.104;19.656;2023-06-14T04:00:29;11.90;;;6.55;;
56122;SDS011;42426;46.104;19.656;2023-06-14T04:02:55;12.38;;;7.20;;
56122;SDS011;42426;46.104;19.656;2023-06-14T04:05:21;11.57;;;7.05;;
56122;SDS011;42426;46.104;19.656;2023-06-14T04:07:46;10.98;;;6.38;;
56122;SDS011;42426;46.104;19.656;2023-06-14T04:10:13;10.27;;;6.78;;
56122;SDS011;42426;46.104;19.656;2023-06-14T04:12:40;10.25;;;6.97;;
56122;SDS011;42426;46.104;19.656;2023-06-14T04:15:07;13.30;;;6.38;;
56122;SDS011;42426;46.104;19.656;2023-06-14T04:17:37;10.60;;;6.70;;
56122;SDS011;42426;46.104;19.656;2023-06-14T04:20:03;14.55;;;6.22;;
56122;SDS011;42426;46.104;19.656;2023-06-14T04:22:31;10.73;;;6.35;;
56122;SDS011;42426;46.104;19.656;2023-06-14T04:24:59;12.30;;;6.50;;
56122;SDS011;42426;46.104;19.656;2023-06-14T04:27:28;10.77;;;6.70;;
56122;SDS011;42426;46.104;19.656;2023-06-14T04:29:56;8.38;;;6.53;;
56122;SDS011;42426;46.104;19.656;2023-06-14T04:32:31;11.63;;;6.88;;
56122;SDS011;42426;46.104;19.656;2023-06-14T04:34:58;12.25;;;7.40;;
56122;SDS011;42426;46.104;19.656;2023-06-14T04:37:27;11.05;;;7.25;;
56122;SDS011;42426;46.104;19.656;2023-06-14T04:39:55;12.43;;;7.10;;
56122;SDS011;42426;46.104;19.656;2023-06-14T04:42:22;11.98;;;6.95;;
56122;SDS011;42426;46.104;19.656;2023-06-14T04:44:50;13.70;;;7.90;;
56122;SDS011;42426;46.104;19.656;2023-06-14T04:47:20;13.13;;;7.60;;
56122;SDS011;42426;46.104;19.656;2023-06-14T04:49:46;16.45;;;7.78;;
56122;SDS011;42426;46.104;19.656;2023-06-14T04:52:12;14.05;;;8.70;;
56122;SDS011;42426;46.104;19.656;2023-06-14T04:54:39;20.90;;;8.18;;
56122;SDS011;42426;46.104;19.656;2023-06-14T04:57:08;11.85;;;7.15;;
56122;SDS011;42426;46.104;19.656;2023-06-14T04:59:39;13.25;;;7.03;;
56122;SDS011;42426;46.104;19.656;2023-06-14T05:02:05;16.65;;;7.65;;
56122;SDS011;42426;46.104;19.656;2023-06-14T05:04:32;12.50;;;7.18;;
56122;SDS011;42426;46.104;19.656;2023-06-14T05:06:58;10.93;;;7.32;;
56122;SDS011;42426;46.104;19.656;2023-06-14T05:09:24;21.67;;;7.50;;
56122;SDS011;42426;46.104;19.656;2023-06-14T05:11:50;13.93;;;7.85;;
56122;SDS011;42426;46.104;19.656;2023-06-14T05:14:16;13.00;;;7.07;;
56122;SDS011;42426;46.104;19.656;2023-06-14T05:16:43;14.30;;;7.10;;
56122;SDS011;42426;46.104;19.656;2023-06-14T05:19:09;13.55;;;7.38;;
56122;SDS011;42426;46.104;19.656;2023-06-14T05:21:36;11.10;;;6.90;;
56122;SDS011;42426;46.104;19.656;2023-06-14T05:24:02;10.93;;;7.57;;
56122;SDS011;42426;46.104;19.656;2023-06-14T05:29:51;17.15;;;7.18;;
56122;SDS011;42426;46.104;19.656;2023-06-14T05:35:42;14.13;;;7.22;;
56122;SDS011;42426;46.104;19.656;2023-06-14T05:41:29;13.57;;;8.05;;
56122;SDS011;42426;46.104;19.656;2023-06-14T05:47:17;10.57;;;6.03;;
56122;SDS011;42426;46.104;19.656;2023-06-14T05:53:04;14.57;;;7.10;;
56122;SDS011;42426;46.104;19.656;2023-06-14T05:58:52;14.57;;;7.88;;
56122;SDS011;42426;46.104;19.656;2023-06-14T06:04:40;8.05;;;6.05;;
56122;SDS011;42426;46.104;19.656;2023-06-14T06:10:27;10.95;;;6.28;;
56122;SDS011;42426;46.104;19.656;2023-06-14T06:16:15;10.35;;;6.13;;
56122;SDS011;42426;46.104;19.656;2023-06-14T06:22:02;10.00;;;6.32;;
56122;SDS011;42426;46.104;19.656;2023-06-14T06:27:53;10.40;;;5.70;;
56122;SDS011;42426;46.104;19.656;2023-06-14T06:33:41;11.75;;;7.60;;
56122;SDS011;42426;46.104;19.656;2023-06-14T06:39:28;13.57;;;6.18;;
56122;SDS011;42426;46.104;19.656;2023-06-14T06:45:16;7.45;;;5.10;;
56122;SDS011;42426;46.104;19.656;2023-06-14T06:51:04;28.98;;;8.65;;
56122;SDS011;42426;46.104;19.656;2023-06-14T06:56:52;11.10;;;6.25;;
56122;SDS011;42426;46.104;19.656;2023-06-14T07:02:40;10.82;;;5.95;;
56122;SDS011;42426;46.104;19.656;2023-06-14T07:05:06;11.80;;;6.00;;
56122;SDS011;42426;46.104;19.656;2023-06-14T07:07:32;9.40;;;5.10;;
56122;SDS011;42426;46.104;19.656;2023-06-14T07:09:58;9.90;;;5.20;;
56122;SDS011;42426;46.104;19.656;2023-06-14T07:12:25;11.18;;;5.43;;
56122;SDS011;42426;46.104;19.656;2023-06-14T07:14:51;12.93;;;5.97;;
56122;SDS011;42426;46.104;19.656;2023-06-14T07:17:17;11.20;;;5.07;;
56122;SDS011;42426;46.104;19.656;2023-06-14T07:19:43;7.68;;;4.82;;
56122;SDS011;42426;46.104;19.656;2023-06-14T07:22:08;10.00;;;5.53;;
56122;SDS011;42426;46.104;19.656;2023-06-14T07:24:34;7.07;;;5.03;;
56122;SDS011;42426;46.104;19.656;2023-06-14T07:27:01;13.57;;;4.88;;
56122;SDS011;42426;46.104;19.656;2023-06-14T07:29:29;6.85;;;4.53;;
56122;SDS011;42426;46.104;19.656;2023-06-14T07:31:55;9.98;;;4.80;;
56122;SDS011;42426;46.104;19.656;2023-06-14T07:34:20;11.38;;;4.50;;
56122;SDS011;42426;46.104;19.656;2023-06-14T07:36:46;8.60;;;5.28;;
56122;SDS011;42426;46.104;19.656;2023-06-14T07:39:12;5.43;;;3.72;;
56122;SDS011;42426;46.104;19.656;2023-06-14T07:41:38;17.63;;;4.35;;
56122;SDS011;42426;46.104;19.656;2023-06-14T07:44:04;7.13;;;4.15;;
56122;SDS011;42426;46.104;19.656;2023-06-14T07:46:30;6.15;;;4.38;;
56122;SDS011;42426;46.104;19.656;2023-06-14T07:48:56;4.78;;;4.00;;
56122;SDS011;42426;46.104;19.656;2023-06-14T07:51:24;13.05;;;3.20;;
56122;SDS011;42426;46.104;19.656;2023-06-14T07:53:49;7.55;;;4.05;;
56122;SDS011;42426;46.104;19.656;2023-06-14T07:56:15;7.05;;;4.03;;
56122;SDS011;42426;46.104;19.656;2023-06-14T07:58:41;9.55;;;4.72;;
56122;SDS011;42426;46.104;19.656;2023-06-14T08:01:07;7.70;;;4.38;;
56122;SDS011;42426;46.104;19.656;2023-06-14T08:03:33;6.82;;;4.53;;
56122;SDS011;42426;46.104;19.656;2023-06-14T08:05:59;10.00;;;4.13;;
56122;SDS011;42426;46.104;19.656;2023-06-14T08:08:29;9.00;;;4.53;;
56122;SDS011;42426;46.104;19.656;2023-06-14T08:10:55;9.18;;;4.35;;
56122;SDS011;42426;46.104;19.656;2023-06-14T08:13:22;9.20;;;4.45;;
56122;SDS011;42426;46.104;19.656;2023-06-14T08:15:48;9.05;;;5.13;;
56122;SDS011;42426;46.104;19.656;2023-06-14T08:18:14;7.88;;;3.95;;
56122;SDS011;42426;46.104;19.656;2023-06-14T08:20:40;10.65;;;4.90;;
56122;SDS011;42426;46.104;19.656;2023-06-14T08:23:06;7.65;;;4.20;;
56122;SDS011;42426;46.104;19.656;2023-06-14T08:25:34;8.50;;;4.40;;
56122;SDS011;42426;46.104;19.656;2023-06-14T08:28:00;5.88;;;3.90;;
56122;SDS011;42426;46.104;19.656;2023-06-14T08:30:26;5.18;;;3.95;;
56122;SDS011;42426;46.104;19.656;2023-06-14T08:32:52;5.63;;;3.80;;
56122;SDS011;42426;46.104;19.656;2023-06-14T08:35:20;7.95;;;4.10;;
56122;SDS011;42426;46.104;19.656;2023-06-14T08:37:47;8.45;;;4.55;;
56122;SDS011;42426;46.104;19.656;2023-06-14T08:40:20;6.88;;;4.05;;
56122;SDS011;42426;46.104;19.656;2023-06-14T08:42:47;6.32;;;4.10;;
56122;SDS011;42426;46.104;19.656;2023-06-14T08:45:13;5.85;;;4.25;;
56122;SDS011;42426;46.104;19.656;2023-06-14T08:47:40;5.40;;;4.05;;
56122;SDS011;42426;46.104;19.656;2023-06-14T08:50:06;5.25;;;3.88;;
56122;SDS011;42426;46.104;19.656;2023-06-14T08:52:35;8.82;;;4.80;;
56122;SDS011;42426;46.104;19.656;2023-06-14T08:55:10;7.03;;;4.78;;
56122;SDS011;42426;46.104;19.656;2023-06-14T08:57:37;6.15;;;4.50;;
56122;SDS011;42426;46.104;19.656;2023-06-14T09:00:04;11.30;;;4.30;;
56122;SDS011;42426;46.104;19.656;2023-06-14T09:02:37;9.38;;;6.55;;
56122;SDS011;42426;46.104;19.656;2023-06-14T09:05:09;9.90;;;4.95;;
56122;SDS011;42426;46.104;19.656;2023-06-14T09:07:36;8.23;;;4.68;;
56122;SDS011;42426;46.104;19.656;2023-06-14T09:10:13;5.95;;;4.57;;
56122;SDS011;42426;46.104;19.656;2023-06-14T09:12:40;8.88;;;4.22;;
56122;SDS011;42426;46.104;19.656;2023-06-14T09:21:07;11.30;;;4.82;;
56122;SDS011;42426;46.104;19.656;2023-06-14T09:23:43;7.63;;;4.28;;
56122;SDS011;42426;46.104;19.656;2023-06-14T09:26:12;6.30;;;4.03;;
56122;SDS011;42426;46.104;19.656;2023-06-14T09:28:43;10.43;;;5.10;;
56122;SDS011;42426;46.104;19.656;2023-06-14T09:31:16;6.40;;;4.82;;
56122;SDS011;42426;46.104;19.656;2023-06-14T09:33:49;11.32;;;4.40;;
56122;SDS011;42426;46.104;19.656;2023-06-14T09:36:25;6.20;;;3.90;;
56122;SDS011;42426;46.104;19.656;2023-06-14T09:38:56;5.85;;;4.30;;
56122;SDS011;42426;46.104;19.656;2023-06-14T09:41:42;10.57;;;5.03;;
56122;SDS011;42426;46.104;19.656;2023-06-14T09:44:08;6.10;;;4.13;;
56122;SDS011;42426;46.104;19.656;2023-06-14T09:46:36;6.45;;;4.60;;
56122;SDS011;42426;46.104;19.656;2023-06-14T09:49:03;5.72;;;4.07;;
56122;SDS011;42426;46.104;19.656;2023-06-14T09:51:30;5.63;;;4.25;;
56122;SDS011;42426;46.104;19.656;2023-06-14T09:53:59;7.85;;;5.53;;
56122;SDS011;42426;46.104;19.656;2023-06-14T09:56:27;5.85;;;4.70;;
56122;SDS011;42426;46.104;19.656;2023-06-14T09:58:57;8.95;;;5.10;;
56122;SDS011;42426;46.104;19.656;2023-06-14T10:01:25;6.45;;;3.70;;
56122;SDS011;42426;46.104;19.656;2023-06-14T10:04:12;4.65;;;3.95;;
56122;SDS011;42426;46.104;19.656;2023-06-14T10:06:40;5.55;;;4.53;;
56122;SDS011;42426;46.104;19.656;2023-06-14T10:09:08;17.50;;;5.65;;
56122;SDS011;42426;46.104;19.656;2023-06-14T10:11:35;7.00;;;4.18;;
56122;SDS011;42426;46.104;19.656;2023-06-14T10:14:03;5.47;;;4.28;;
56122;SDS011;42426;46.104;19.656;2023-06-14T10:21:51;6.88;;;4.85;;
56122;SDS011;42426;46.104;19.656;2023-06-14T10:24:35;8.38;;;4.53;;
56122;SDS011;42426;46.104;19.656;2023-06-14T10:27:07;7.70;;;4.20;;
56122;SDS011;42426;46.104;19.656;2023-06-14T10:30:18;12.77;;;5.63;;
56122;SDS011;42426;46.104;19.656;2023-06-14T10:32:25;8.20;;;4.47;;
56122;SDS011;42426;46.104;19.656;2023-06-14T10:34:53;9.55;;;5.32;;
56122;SDS011;42426;46.104;19.656;2023-06-14T10:37:24;9.70;;;4.65;;
56122;SDS011;42426;46.104;19.656;2023-06-14T10:39:50;7.75;;;4.25;;
56122;SDS011;42426;46.104;19.656;2023-06-14T10:42:16;7.55;;;4.25;;
56122;SDS011;42426;46.104;19.656;2023-06-14T10:47:21;8.10;;;4.70;;
56122;SDS011;42426;46.104;19.656;2023-06-14T10:52:24;9.35;;;4.60;;
56122;SDS011;42426;46.104;19.656;2023-06-14T10:54:58;5.82;;;4.18;;
56122;SDS011;42426;46.104;19.656;2023-06-14T10:57:25;8.15;;;4.43;;
56122;SDS011;42426;46.104;19.656;2023-06-14T10:59:51;6.85;;;4.22;;
56122;SDS011;42426;46.104;19.656;2023-06-14T11:05:14;7.10;;;4.50;;
56122;SDS011;42426;46.104;19.656;2023-06-14T11:07:45;8.98;;;4.50;;
56122;SDS011;42426;46.104;19.656;2023-06-14T11:10:39;7.97;;;4.33;;
56122;SDS011;42426;46.104;19.656;2023-06-14T11:13:06;8.10;;;4.57;;
56122;SDS011;42426;46.104;19.656;2023-06-14T11:15:34;6.00;;;5.10;;
56122;SDS011;42426;46.104;19.656;2023-06-14T11:18:03;5.43;;;4.65;;
56122;SDS011;42426;46.104;19.656;2023-06-14T11:20:32;7.60;;;5.55;;
56122;SDS011;42426;46.104;19.656;2023-06-14T11:22:59;5.53;;;4.38;;
56122;SDS011;42426;46.104;19.656;2023-06-14T11:25:26;6.07;;;4.07;;
56122;SDS011;42426;46.104;19.656;2023-06-14T11:27:56;6.25;;;4.90;;
56122;SDS011;42426;46.104;19.656;2023-06-14T11:30:23;11.93;;;4.32;;
56122;SDS011;42426;46.104;19.656;2023-06-14T11:32:51;9.00;;;5.20;;
56122;SDS011;42426;46.104;19.656;2023-06-14T11:35:17;6.95;;;4.90;;
56122;SDS011;42426;46.104;19.656;2023-06-14T11:37:44;6.85;;;5.35;;
56122;SDS011;42426;46.104;19.656;2023-06-14T11:40:10;6.70;;;4.90;;
56122;SDS011;42426;46.104;19.656;2023-06-14T11:42:40;5.45;;;4.80;;
56122;SDS011;42426;46.104;19.656;2023-06-14T11:45:07;5.15;;;4.35;;
56122;SDS011;42426;46.104;19.656;2023-06-14T11:47:38;7.40;;;4.38;;
56122;SDS011;42426;46.104;19.656;2023-06-14T11:50:08;5.65;;;4.53;;
56122;SDS011;42426;46.104;19.656;2023-06-14T11:52:36;7.18;;;4.65;;
56122;SDS011;42426;46.104;19.656;2023-06-14T11:55:02;6.70;;;4.40;;
56122;SDS011;42426;46.104;19.656;2023-06-14T11:57:35;5.25;;;3.97;;
56122;SDS011;42426;46.104;19.656;2023-06-14T12:00:04;5.20;;;3.97;;
56122;SDS011;42426;46.104;19.656;2023-06-14T12:02:40;6.20;;;3.90;;
56122;SDS011;42426;46.104;19.656;2023-06-14T12:05:06;5.57;;;4.30;;
56122;SDS011;42426;46.104;19.656;2023-06-14T12:07:35;6.85;;;4.47;;
56122;SDS011;42426;46.104;19.656;2023-06-14T12:12:34;5.63;;;4.53;;
56122;SDS011;42426;46.104;19.656;2023-06-14T12:15:05;8.85;;;4.18;;
56122;SDS011;42426;46.104;19.656;2023-06-14T12:17:33;4.72;;;3.83;;
56122;SDS011;42426;46.104;19.656;2023-06-14T12:20:04;7.90;;;4.15;;
56122;SDS011;42426;46.104;19.656;2023-06-14T12:22:54;4.95;;;3.40;;
56122;SDS011;42426;46.104;19.656;2023-06-14T12:25:27;4.40;;;4.00;;
56122;SDS011;42426;46.104;19.656;2023-06-14T12:30:59;6.97;;;3.97;;
56122;SDS011;42426;46.104;19.656;2023-06-14T12:36:29;10.48;;;4.85;;
56122;SDS011;42426;46.104;19.656;2023-06-14T12:38:56;5.93;;;4.80;;
56122;SDS011;42426;46.104;19.656;2023-06-14T12:41:22;5.45;;;4.20;;
56122;SDS011;42426;46.104;19.656;2023-06-14T12:43:49;5.85;;;4.00;;
56122;SDS011;42426;46.104;19.656;2023-06-14T12:46:16;5.15;;;4.05;;
56122;SDS011;42426;46.104;19.656;2023-06-14T12:48:43;4.40;;;3.95;;
56122;SDS011;42426;46.104;19.656;2023-06-14T12:51:09;7.57;;;4.30;;
56122;SDS011;42426;46.104;19.656;2023-06-14T12:53:35;5.97;;;4.40;;
56122;SDS011;42426;46.104;19.656;2023-06-14T12:56:01;8.95;;;5.78;;
56122;SDS011;42426;46.104;19.656;2023-06-14T12:58:28;5.47;;;4.65;;
56122;SDS011;42426;46.104;19.656;2023-06-14T13:00:54;8.20;;;3.80;;
56122;SDS011;42426;46.104;19.656;2023-06-14T13:03:20;9.23;;;4.18;;
56122;SDS011;42426;46.104;19.656;2023-06-14T13:05:45;6.30;;;3.97;;
56122;SDS011;42426;46.104;19.656;2023-06-14T13:08:11;6.22;;;4.53;;
56122;SDS011;42426;46.104;19.656;2023-06-14T13:10:37;5.38;;;4.07;;
56122;SDS011;42426;46.104;19.656;2023-06-14T13:13:03;6.93;;;4.05;;
56122;SDS011;42426;46.104;19.656;2023-06-14T13:15:29;12.13;;;4.53;;
56122;SDS011;42426;46.104;19.656;2023-06-14T13:17:55;8.57;;;4.07;;
56122;SDS011;42426;46.104;19.656;2023-06-14T13:20:20;6.60;;;4.22;;
56122;SDS011;42426;46.104;19.656;2023-06-14T13:22:46;6.75;;;3.90;;
56122;SDS011;42426;46.104;19.656;2023-06-14T13:25:12;7.38;;;4.40;;
56122;SDS011;42426;46.104;19.656;2023-06-14T13:27:39;7.53;;;4.28;;
56122;SDS011;42426;46.104;19.656;2023-06-14T13:30:05;6.40;;;4.32;;
56122;SDS011;42426;46.104;19.656;2023-06-14T13:32:31;5.05;;;4.55;;
56122;SDS011;42426;46.104;19.656;2023-06-14T13:34:57;4.72;;;4.00;;
56122;SDS011;42426;46.104;19.656;2023-06-14T13:37:23;5.38;;;4.30;;
56122;SDS011;42426;46.104;19.656;2023-06-14T13:39:50;5.28;;;4.28;;
56122;SDS011;42426;46.104;19.656;2023-06-14T13:42:16;4.68;;;4.20;;
56122;SDS011;42426;46.104;19.656;2023-06-14T13:44:45;7.28;;;4.38;;
56122;SDS011;42426;46.104;19.656;2023-06-14T13:47:10;7.38;;;4.97;;
56122;SDS011;42426;46.104;19.656;2023-06-14T13:49:37;6.47;;;4.38;;
56122;SDS011;42426;46.104;19.656;2023-06-14T13:52:04;9.68;;;4.90;;
56122;SDS011;42426;46.104;19.656;2023-06-14T13:54:31;7.13;;;4.40;;
56122;SDS011;42426;46.104;19.656;2023-06-14T13:56:57;6.63;;;4.88;;
56122;SDS011;42426;46.104;19.656;2023-06-14T13:59:23;6.40;;;4.65;;
56122;SDS011;42426;46.104;19.656;2023-06-14T14:01:49;8.35;;;4.43;;
56122;SDS011;42426;46.104;19.656;2023-06-14T14:04:15;7.68;;;4.05;;
56122;SDS011;42426;46.104;19.656;2023-06-14T14:06:41;7.05;;;4.38;;
56122;SDS011;42426;46.104;19.656;2023-06-14T14:09:07;5.22;;;4.30;;
56122;SDS011;42426;46.104;19.656;2023-06-14T14:11:34;6.28;;;4.47;;
56122;SDS011;42426;46.104;19.656;2023-06-14T14:14:00;6.15;;;4.88;;
56122;SDS011;42426;46.104;19.656;2023-06-14T14:16:26;6.20;;;4.40;;
56122;SDS011;42426;46.104;19.656;2023-06-14T14:18:52;5.78;;;4.60;;
56122;SDS011;42426;46.104;19.656;2023-06-14T14:21:17;11.65;;;5.40;;
56122;SDS011;42426;46.104;19.656;2023-06-14T14:23:43;5.82;;;4.30;;
56122;SDS011;42426;46.104;19.656;2023-06-14T14:26:10;8.80;;;4.57;;
56122;SDS011;42426;46.104;19.656;2023-06-14T14:28:36;9.90;;;4.13;;
56122;SDS011;42426;46.104;19.656;2023-06-14T14:31:02;6.38;;;4.68;;
56122;SDS011;42426;46.104;19.656;2023-06-14T14:33:28;9.93;;;4.57;;
56122;SDS011;42426;46.104;19.656;2023-06-14T14:35:53;5.35;;;4.55;;
56122;SDS011;42426;46.104;19.656;2023-06-14T14:38:19;7.65;;;4.50;;
56122;SDS011;42426;46.104;19.656;2023-06-14T14:40:46;6.57;;;4.82;;
56122;SDS011;42426;46.104;19.656;2023-06-14T14:43:12;4.50;;;4.10;;
56122;SDS011;42426;46.104;19.656;2023-06-14T14:45:38;7.60;;;4.90;;
56122;SDS011;42426;46.104;19.656;2023-06-14T14:48:04;7.18;;;4.00;;
56122;SDS011;42426;46.104;19.656;2023-06-14T14:50:30;8.48;;;5.03;;
56122;SDS011;42426;46.104;19.656;2023-06-14T14:52:56;5.35;;;4.75;;
56122;SDS011;42426;46.104;19.656;2023-06-14T14:55:22;7.18;;;4.28;;
56122;SDS011;42426;46.104;19.656;2023-06-14T14:57:48;9.10;;;4.60;;
56122;SDS011;42426;46.104;19.656;2023-06-14T15:00:13;7.60;;;4.13;;
56122;SDS011;42426;46.104;19.656;2023-06-14T15:02:40;6.07;;;3.97;;
56122;SDS011;42426;46.104;19.656;2023-06-14T15:05:06;8.13;;;4.97;;
56122;SDS011;42426;46.104;19.656;2023-06-14T15:07:32;8.00;;;4.40;;
56122;SDS011;42426;46.104;19.656;2023-06-14T15:09:59;6.78;;;4.10;;
56122;SDS011;42426;46.104;19.656;2023-06-14T15:12:25;5.40;;;4.10;;
56122;SDS011;42426;46.104;19.656;2023-06-14T15:14:51;4.97;;;4.20;;
56122;SDS011;42426;46.104;19.656;2023-06-14T15:17:17;7.82;;;4.78;;
56122;SDS011;42426;46.104;19.656;2023-06-14T15:19:44;11.95;;;4.72;;
56122;SDS011;42426;46.104;19.656;2023-06-14T15:22:10;9.75;;;4.30;;
56122;SDS011;42426;46.104;19.656;2023-06-14T15:24:36;7.85;;;4.43;;
56122;SDS011;42426;46.104;19.656;2023-06-14T15:27:02;5.50;;;4.22;;
56122;SDS011;42426;46.104;19.656;2023-06-14T15:29:28;8.90;;;4.80;;
56122;SDS011;42426;46.104;19.656;2023-06-14T15:31:54;14.10;;;5.00;;
56122;SDS011;42426;46.104;19.656;2023-06-14T15:34:20;8.52;;;5.32;;
56122;SDS011;42426;46.104;19.656;2023-06-14T15:36:46;6.28;;;4.32;;
56122;SDS011;42426;46.104;19.656;2023-06-14T15:39:12;6.35;;;5.60;;
56122;SDS011;42426;46.104;19.656;2023-06-14T15:41:38;11.38;;;5.38;;
56122;SDS011;42426;46.104;19.656;2023-06-14T15:44:04;7.18;;;4.88;;
56122;SDS011;42426;46.104;19.656;2023-06-14T15:46:30;15.07;;;5.07;;
56122;SDS011;42426;46.104;19.656;2023-06-14T15:48:56;7.65;;;5.50;;
56122;SDS011;42426;46.104;19.656;2023-06-14T15:51:22;6.22;;;5.63;;
56122;SDS011;42426;46.104;19.656;2023-06-14T15:53:48;10.80;;;5.72;;
56122;SDS011;42426;46.104;19.656;2023-06-14T15:56:13;9.82;;;5.68;;
56122;SDS011;42426;46.104;19.656;2023-06-14T15:58:42;8.20;;;5.80;;